createdAt,value
2022-10-18T00:01:13.306Z,100754.23
2022-10-18T00:03:40.664Z,100746.77
2022-10-18T00:06:11.397Z,100747.46
2022-10-18T00:08:39.523Z,100740.80
2022-10-18T00:11:07.917Z,100735.42
2022-10-18T00:13:34.807Z,100733.70
2022-10-18T00:16:04.926Z,100732.52
2022-10-18T00:18:32.720Z,100728.27
2022-10-18T00:21:05.936Z,100731.58
2022-10-18T00:23:36.436Z,100725.40
2022-10-18T00:26:16.220Z,100725.07
2022-10-18T00:28:45.722Z,100721.13
2022-10-18T00:31:27.464Z,100718.34
2022-10-18T00:34:09.311Z,100707.58
2022-10-18T00:36:40.153Z,100707.04
2022-10-18T00:39:13.599Z,100706.41
2022-10-18T00:41:40.524Z,100707.82
2022-10-18T00:44:15.789Z,100706.39
2022-10-18T00:46:45.342Z,100704.83
2022-10-18T00:49:26.953Z,100707.98
2022-10-18T00:52:00.426Z,100709.02
2022-10-18T00:54:30.419Z,100705.58
2022-10-18T00:56:57.710Z,100700.96
2022-10-18T00:59:25.458Z,100698.72
2022-10-18T01:01:57.022Z,100698.58
2022-10-18T01:04:24.871Z,100698.05
2022-10-18T01:07:28.682Z,100692.50
2022-10-18T01:10:11.289Z,100690.20
2022-10-18T01:13:05.944Z,100683.98
2022-10-18T01:15:59.991Z,100681.81
2022-10-18T01:18:40.995Z,100676.13
2022-10-18T01:21:22.803Z,100675.66
2022-10-18T01:24:30.793Z,100671.86
2022-10-18T01:27:35.703Z,100669.81
2022-10-18T01:30:24.361Z,100665.93
2022-10-18T01:32:54.422Z,100664.97
2022-10-18T01:35:33.352Z,100663.02
2022-10-18T01:38:06.061Z,100654.94
2022-10-18T01:40:35.469Z,100651.76
2022-10-18T01:43:04.204Z,100650.29
2022-10-18T01:45:35.120Z,100651.85
2022-10-18T01:48:04.792Z,100643.88
2022-10-18T01:50:35.379Z,100635.02
2022-10-18T01:53:02.784Z,100633.21
2022-10-18T01:55:47.548Z,100629.88
2022-10-18T01:58:56.278Z,100623.89
2022-10-18T02:01:38.431Z,100619.88
2022-10-18T02:04:19.007Z,100617.60
2022-10-18T02:06:54.882Z,100620.16
2022-10-18T02:09:34.583Z,100615.16
2022-10-18T02:12:02.810Z,100609.95
2022-10-18T02:14:31.695Z,100610.98
2022-10-18T02:17:03.076Z,100608.91
2022-10-18T02:19:39.854Z,100607.79
2022-10-18T02:22:12.798Z,100611.92
2022-10-18T02:24:54.434Z,100611.73
2022-10-18T02:27:21.858Z,100608.15
2022-10-18T02:29:49.262Z,100603.95
2022-10-18T02:32:40.737Z,100600.76
2022-10-18T02:35:13.252Z,100600.90
2022-10-18T02:37:43.444Z,100601.33
2022-10-18T02:40:10.683Z,100597.27
2022-10-18T02:42:43.582Z,100596.48
2022-10-18T02:45:11.149Z,100595.98
2022-10-18T02:47:38.040Z,100592.45
2022-10-18T02:50:09.834Z,100586.87
2022-10-18T02:52:37.940Z,100581.73
2022-10-18T02:55:06.761Z,100580.91
2022-10-18T02:57:34.336Z,100577.92
2022-10-18T03:00:03.462Z,100572.25
2022-10-18T03:02:31.928Z,100563.98
2022-10-18T03:04:59.221Z,100563.80
2022-10-18T03:07:26.263Z,100555.13
2022-10-18T03:09:53.016Z,100556.61
2022-10-18T03:12:19.781Z,100553.67
2022-10-18T03:14:49.588Z,100555.71
2022-10-18T03:17:19.926Z,100553.85
2022-10-18T03:19:48.789Z,100558.10
2022-10-18T03:22:18.660Z,100556.06
2022-10-18T03:24:51.059Z,100560.38
2022-10-18T03:27:18.918Z,100561.73
2022-10-18T03:29:46.894Z,100566.36
2022-10-18T03:32:14.976Z,100565.38
2022-10-18T03:34:41.736Z,100557.89
2022-10-18T03:37:09.352Z,100555.54
2022-10-18T03:39:37.247Z,100551.55
2022-10-18T03:42:04.006Z,100553.23
2022-10-18T03:44:30.986Z,100546.46
2022-10-18T03:47:00.965Z,100540.24
2022-10-18T03:49:30.957Z,100535.53
2022-10-18T03:51:59.051Z,100530.45
2022-10-18T03:54:26.926Z,100527.64
2022-10-18T03:56:53.703Z,100530.16
2022-10-18T03:59:20.558Z,100522.73
2022-10-18T04:01:47.456Z,100518.70
2022-10-18T04:04:21.297Z,100514.88
2022-10-18T04:06:49.935Z,100508.70
2022-10-18T04:09:17.227Z,100511.42
2022-10-18T04:11:44.100Z,100510.93
2022-10-18T04:14:11.496Z,100514.47
2022-10-18T04:16:39.944Z,100510.13
2022-10-18T04:19:08.923Z,100508.91
2022-10-18T04:21:36.035Z,100504.08
2022-10-18T04:24:06.696Z,100503.62
2022-10-18T04:26:36.388Z,100497.51
2022-10-18T04:29:04.140Z,100496.27
2022-10-18T04:31:31.335Z,100498.03
2022-10-18T04:33:58.204Z,100493.13
2022-10-18T04:36:25.277Z,100488.43
2022-10-18T04:38:54.900Z,100485.11
2022-10-18T04:41:21.785Z,100481.91
2022-10-18T04:43:49.802Z,100476.00
2022-10-18T04:46:16.962Z,100477.42
2022-10-18T04:48:44.499Z,100471.95
2022-10-18T04:51:11.747Z,100468.11
2022-10-18T04:53:39.579Z,100469.61
2022-10-18T04:56:07.136Z,100467.98
2022-10-18T04:58:36.284Z,100465.13
2022-10-18T05:01:07.075Z,100462.02
2022-10-18T05:03:34.457Z,100463.59
2022-10-18T05:06:03.632Z,100463.77
2022-10-18T05:08:33.725Z,100464.86
2022-10-18T05:11:01.407Z,100466.84
2022-10-18T05:13:37.694Z,100466.91
2022-10-18T05:16:05.328Z,100464.27
2022-10-18T05:18:33.883Z,100466.46
2022-10-18T05:21:04.951Z,100469.35
2022-10-18T05:23:33.141Z,100465.90
2022-10-18T05:26:07.988Z,100466.58
2022-10-18T05:28:40.010Z,100471.90
2022-10-18T05:31:11.296Z,100479.30
2022-10-18T05:33:38.489Z,100479.73
2022-10-18T05:36:05.805Z,100488.04
2022-10-18T05:38:33.792Z,100488.77
2022-10-18T05:41:06.487Z,100491.48
2022-10-18T05:43:34.492Z,100490.10
2022-10-18T05:46:04.209Z,100488.88
2022-10-18T05:48:32.428Z,100493.39
2022-10-18T05:51:00.268Z,100491.19
2022-10-18T05:53:43.187Z,100487.58
2022-10-18T05:56:13.859Z,100485.27
2022-10-18T05:58:44.833Z,100481.32
2022-10-18T06:01:11.660Z,100483.83
2022-10-18T06:03:39.282Z,100482.11
2022-10-18T06:06:10.274Z,100483.58
2022-10-18T06:08:41.213Z,100481.40
2022-10-18T06:11:14.556Z,100480.33
2022-10-18T06:13:43.989Z,100481.02
2022-10-18T06:16:12.784Z,100483.95
2022-10-18T06:18:44.028Z,100486.92
2022-10-18T06:21:17.684Z,100482.65
2022-10-18T06:23:52.703Z,100482.52
2022-10-18T06:26:26.133Z,100484.65
2022-10-18T06:28:56.192Z,100489.52
2022-10-18T06:31:25.303Z,100488.38
2022-10-18T06:33:58.749Z,100481.45
2022-10-18T06:36:30.242Z,100481.69
2022-10-18T06:38:57.498Z,100478.85
2022-10-18T06:41:24.292Z,100477.90
2022-10-18T06:43:53.217Z,100476.45
2022-10-18T06:46:22.616Z,100469.88
2022-10-18T06:48:49.924Z,100469.02
2022-10-18T06:51:18.371Z,100463.03
2022-10-18T06:53:59.113Z,100461.69
2022-10-18T06:56:35.326Z,100460.99
2022-10-18T06:59:03.495Z,100460.46
2022-10-18T07:01:30.574Z,100459.06
2022-10-18T07:03:57.684Z,100462.55
2022-10-18T07:06:24.908Z,100459.10
2022-10-18T07:08:54.647Z,100457.22
2022-10-18T07:11:27.083Z,100457.16
2022-10-18T07:14:00.308Z,100459.40
2022-10-18T07:16:30.090Z,100456.33
2022-10-18T07:18:58.820Z,100460.48
2022-10-18T07:21:26.726Z,100455.23
2022-10-18T07:23:55.962Z,100455.09
2022-10-18T07:26:31.736Z,100447.80
2022-10-18T07:29:06.192Z,100439.81
2022-10-18T07:31:33.422Z,100439.61
2022-10-18T07:34:00.670Z,100441.67
2022-10-18T07:36:27.621Z,100443.88
2022-10-18T07:38:54.495Z,100441.96
2022-10-18T07:41:21.548Z,100438.31
2022-10-18T07:43:52.575Z,100433.08
2022-10-18T07:46:25.743Z,100433.65
2022-10-18T07:48:54.332Z,100430.46
2022-10-18T07:51:21.951Z,100422.95
2022-10-18T07:53:49.315Z,100425.54
2022-10-18T07:56:21.536Z,100416.71
2022-10-18T07:58:53.027Z,100417.58
2022-10-18T08:01:22.066Z,100417.45
2022-10-18T08:03:50.486Z,100411.20
2022-10-18T08:06:20.122Z,100409.79
2022-10-18T08:08:46.942Z,100411.45
2022-10-18T08:11:17.293Z,100413.08
2022-10-18T08:13:45.347Z,100406.67
2022-10-18T08:16:16.213Z,100406.36
2022-10-18T08:18:43.645Z,100403.10
2022-10-18T08:21:12.949Z,100397.59
2022-10-18T08:23:42.054Z,100395.43
2022-10-18T08:26:12.207Z,100386.29
2022-10-18T08:28:49.099Z,100381.61
2022-10-18T08:31:21.100Z,100377.79
2022-10-18T08:33:50.914Z,100372.17
2022-10-18T08:36:21.271Z,100371.72
2022-10-18T08:38:49.391Z,100363.67
2022-10-18T08:41:22.295Z,100361.92
2022-10-18T08:44:07.211Z,100359.86
2022-10-18T08:46:38.523Z,100355.30
2022-10-18T08:49:10.472Z,100355.17
2022-10-18T08:51:46.121Z,100356.54
2022-10-18T08:54:18.553Z,100351.10
2022-10-18T08:56:56.293Z,100349.04
2022-10-18T08:59:25.677Z,100345.42
2022-10-18T09:02:16.526Z,100346.69
